createdAt,value
2019-04-09T00:01:51.162Z,97570.00
2019-04-09T00:04:19.547Z,97570.96
2019-04-09T00:06:50.295Z,97564.28
2019-04-09T00:09:19.355Z,97567.85
2019-04-09T00:11:48.397Z,97567.62
2019-04-09T00:14:16.714Z,97575.58
2019-04-09T00:16:46.167Z,97571.66
2019-04-09T00:19:14.649Z,97570.59
2019-04-09T00:21:43.697Z,97570.14
2019-04-09T00:24:12.477Z,97566.30
2019-04-09T00:26:48.237Z,97568.44
2019-04-09T00:29:11.485Z,97569.37
2019-04-09T00:31:40.008Z,97564.17
2019-04-09T00:34:08.323Z,97565.45
2019-04-09T00:36:36.655Z,97573.09
2019-04-09T00:39:06.599Z,97567.52
2019-04-09T00:41:35.794Z,97569.30
2019-04-09T00:44:04.490Z,97568.59
2019-04-09T00:46:32.811Z,97562.13
2019-04-09T00:49:01.201Z,97565.00
2019-04-09T00:51:29.507Z,97563.58
2019-04-09T00:53:58.673Z,97567.16
2019-04-09T00:56:27.511Z,97566.47
2019-04-09T00:58:56.990Z,97563.46
2019-04-09T01:01:28.060Z,97566.32
2019-04-09T01:03:57.192Z,97559.64
2019-04-09T01:06:25.973Z,97567.64
2019-04-09T01:08:54.373Z,97572.33
2019-04-09T01:11:23.441Z,97564.66
2019-04-09T01:13:53.150Z,97571.02
2019-04-09T01:16:22.070Z,97574.80
2019-04-09T01:18:50.622Z,97573.34
2019-04-09T01:21:18.963Z,97573.19
2019-04-09T01:23:47.264Z,97571.11
2019-04-09T01:26:26.628Z,97564.63
2019-04-09T01:29:00.048Z,97569.63
2019-04-09T01:31:46.405Z,97574.22
2019-04-09T01:34:32.375Z,97569.22
2019-04-09T01:37:06.376Z,97564.44
2019-04-09T01:39:39.187Z,97567.95
2019-04-09T01:42:15.122Z,97551.80
2019-04-09T01:44:45.980Z,97560.38
2019-04-09T01:47:28.739Z,97557.69
2019-04-09T01:50:05.030Z,97570.14
2019-04-09T01:52:53.272Z,97563.73
2019-04-09T01:55:29.356Z,97556.06
2019-04-09T01:58:02.255Z,97554.64
2019-04-09T02:00:48.725Z,97552.97
2019-04-09T02:03:18.693Z,97555.96
2019-04-09T02:05:58.143Z,97549.27
2019-04-09T02:08:31.007Z,97553.10
2019-04-09T02:11:01.308Z,97556.91
2019-04-09T02:13:37.012Z,97553.56
2019-04-09T02:16:07.052Z,97555.13
2019-04-09T02:18:40.464Z,97550.58
2019-04-09T02:21:13.474Z,97549.41
2019-04-09T02:23:46.974Z,97557.05
2019-04-09T02:26:32.829Z,97560.14
2019-04-09T02:29:02.858Z,97557.62
2019-04-09T02:31:32.857Z,97555.47
2019-04-09T02:34:18.747Z,97555.47
2019-04-09T02:36:50.705Z,97553.34
2019-04-09T02:39:24.373Z,97554.16
2019-04-09T02:42:06.567Z,97563.95
2019-04-09T02:44:45.815Z,97555.00
2019-04-09T02:47:21.636Z,97557.29
2019-04-09T02:49:55.476Z,97547.02
2019-04-09T02:52:31.778Z,97552.52
2019-04-09T02:55:18.482Z,97547.27
2019-04-09T02:57:54.935Z,97542.72
2019-04-09T03:00:35.591Z,97548.67
2019-04-09T03:03:11.966Z,97552.14
2019-04-09T03:05:59.102Z,97555.23
2019-04-09T03:08:35.244Z,97560.25
2019-04-09T03:11:14.563Z,97555.73
2019-04-09T03:13:45.456Z,97555.14
2019-04-09T03:16:21.687Z,97558.00
2019-04-09T03:19:00.418Z,97551.44
2019-04-09T03:21:46.301Z,97548.07
2019-04-09T03:24:32.583Z,97549.27
2019-04-09T03:27:08.527Z,97548.91
2019-04-09T03:29:44.905Z,97553.45
2019-04-09T03:32:16.756Z,97547.02
2019-04-09T03:34:48.029Z,97551.66
2019-04-09T03:37:27.035Z,97557.77
2019-04-09T03:40:00.668Z,97553.09
2019-04-09T03:42:39.736Z,97560.64
2019-04-09T03:45:24.910Z,97550.80
2019-04-09T03:47:55.369Z,97539.96
2019-04-09T03:50:39.898Z,97548.20
2019-04-09T03:53:18.865Z,97552.84
2019-04-09T03:56:05.408Z,97555.37
2019-04-09T03:58:53.883Z,97553.22
2019-04-09T04:01:30.663Z,97551.28
2019-04-09T04:04:01.059Z,97558.45
2019-04-09T04:06:43.939Z,97557.14
2019-04-09T04:09:22.915Z,97558.91
2019-04-09T04:11:56.458Z,97558.08
2019-04-09T04:14:32.491Z,97557.83
2019-04-09T04:17:02.420Z,97556.52
2019-04-09T04:19:33.329Z,97563.33
2019-04-09T04:22:04.300Z,97561.53
2019-04-09T04:24:34.884Z,97561.41
2019-04-09T04:27:21.273Z,97557.59
2019-04-09T04:29:51.227Z,97555.34
2019-04-09T04:32:27.238Z,97552.56
2019-04-09T04:34:57.181Z,97546.37
2019-04-09T04:37:27.569Z,97549.11
2019-04-09T04:40:01.852Z,97546.84
2019-04-09T04:42:41.704Z,97550.88
2019-04-09T04:45:24.460Z,97554.11
2019-04-09T04:48:09.362Z,97554.70
2019-04-09T04:50:55.942Z,97557.31
2019-04-09T04:53:26.559Z,97553.86
2019-04-09T04:55:59.450Z,97557.27
2019-04-09T04:58:41.121Z,97561.02
2019-04-09T05:01:05.956Z,97556.44
2019-04-09T05:03:42.575Z,97563.64
2019-04-09T05:06:24.812Z,97565.61
2019-04-09T05:08:54.895Z,97564.94
2019-04-09T05:11:25.186Z,97569.59
2019-04-09T05:13:58.128Z,97573.34
2019-04-09T05:16:44.587Z,97573.84
2019-04-09T05:19:14.830Z,97581.81
2019-04-09T05:21:44.784Z,97582.47
2019-04-09T05:24:24.676Z,97590.36
2019-04-09T05:26:56.070Z,97588.59
2019-04-09T05:29:42.273Z,97591.86
2019-04-09T05:32:19.259Z,97578.12
2019-04-09T05:35:05.711Z,97593.34
2019-04-09T05:37:51.311Z,97589.91
2019-04-09T05:40:39.501Z,97598.01
2019-04-09T05:43:09.939Z,97591.86
2019-04-09T05:45:43.063Z,97589.24
2019-04-09T05:48:36.714Z,97596.53
2019-04-09T05:51:06.778Z,97601.41
2019-04-09T05:53:39.170Z,97601.06
2019-04-09T05:56:12.109Z,97609.42
2019-04-09T05:59:01.316Z,97596.06
2019-04-09T06:01:40.814Z,97599.30
2019-04-09T06:04:16.640Z,97600.47
2019-04-09T06:07:04.900Z,97603.00
2019-04-09T06:09:33.329Z,97598.81
2019-04-09T06:12:02.431Z,97599.75
2019-04-09T06:14:31.021Z,97604.64
2019-04-09T06:16:59.395Z,97600.81
2019-04-09T06:19:27.799Z,97600.81
2019-04-09T06:21:56.958Z,97603.67
2019-04-09T06:24:25.489Z,97606.27
2019-04-09T06:26:55.619Z,97601.02
2019-04-09T06:29:25.068Z,97613.42
2019-04-09T06:31:55.864Z,97610.80
2019-04-09T06:34:28.519Z,97607.00
2019-04-09T06:37:01.903Z,97606.14
2019-04-09T06:39:48.009Z,97606.48
2019-04-09T06:42:26.652Z,97609.44
2019-04-09T06:44:59.609Z,97608.16
2019-04-09T06:47:32.913Z,97607.28
2019-04-09T06:50:09.333Z,97607.33
2019-04-09T06:52:51.422Z,97610.11
2019-04-09T06:55:24.860Z,97607.51
2019-04-09T06:57:58.268Z,97609.52
2019-04-09T07:00:28.553Z,97608.98
2019-04-09T07:02:58.727Z,97606.03
2019-04-09T07:05:45.486Z,97600.58
2019-04-09T07:08:31.489Z,97605.86
2019-04-09T07:11:16.768Z,97605.63
2019-04-09T07:13:51.628Z,97603.16
2019-04-09T07:16:21.971Z,97605.85
2019-04-09T07:18:51.933Z,97598.98
2019-04-09T07:21:30.722Z,97602.16
2019-04-09T07:24:13.930Z,97606.97
2019-04-09T07:26:59.889Z,97594.42
2019-04-09T07:29:45.772Z,97598.85
2019-04-09T07:32:13.277Z,97600.86
2019-04-09T07:35:00.096Z,97608.56
2019-04-09T07:37:34.134Z,97606.44
2019-04-09T07:40:14.297Z,97605.48
2019-04-09T07:42:47.636Z,97607.72
2019-04-09T07:45:31.975Z,97599.97
2019-04-09T07:48:13.772Z,97599.85
2019-04-09T07:50:44.889Z,97597.57
2019-04-09T07:53:31.940Z,97600.14
2019-04-09T07:56:03.047Z,97592.91
2019-04-09T07:58:33.367Z,97597.63
2019-04-09T08:01:06.402Z,97599.95
2019-04-09T08:03:39.117Z,97598.23
2019-04-09T08:06:09.505Z,97591.19
2019-04-09T08:08:39.469Z,97596.66
2019-04-09T08:11:25.544Z,97594.66
2019-04-09T08:13:57.356Z,97596.35
2019-04-09T08:16:40.702Z,97593.28
2019-04-09T08:19:28.038Z,97598.18
2019-04-09T08:22:10.629Z,97601.48
2019-04-09T08:24:55.409Z,97598.42
2019-04-09T08:27:24.035Z,97597.41
2019-04-09T08:29:57.099Z,97599.59
2019-04-09T08:32:40.909Z,97601.67
2019-04-09T08:35:18.290Z,97601.27
2019-04-09T08:37:59.683Z,97601.18
2019-04-09T08:40:34.143Z,97599.17
2019-04-09T08:43:19.106Z,97599.65
2019-04-09T08:45:51.869Z,97598.23
2019-04-09T08:51:11.372Z,97596.92
2019-04-09T08:53:58.315Z,97597.60
2019-04-09T08:56:37.556Z,97594.25
2019-04-09T08:59:20.822Z,97591.36
2019-04-09T09:02:14.545Z,97586.50
2019-04-09T09:04:48.992Z,97589.59
2019-04-09T09:07:17.814Z,97586.69
2019-04-09T09:10:03.753Z,97587.94
2019-04-09T09:12:50.116Z,97587.20
2019-04-09T09:15:23.753Z,97582.86
2019-04-09T09:17:55.350Z,97576.92
2019-04-09T09:20:28.777Z,97579.22
2019-04-09T09:23:09.231Z,97573.25
2019-04-09T09:25:52.302Z,97572.23
2019-04-09T09:28:34.333Z,97566.70
2019-04-09T09:31:13.565Z,97569.07
2019-04-09T09:33:54.924Z,97564.38
2019-04-09T09:36:30.860Z,97558.05
2019-04-09T09:39:10.368Z,97559.66
2019-04-09T09:41:43.184Z,97559.66
2019-04-09T09:44:18.575Z,97551.65
2019-04-09T09:46:56.480Z,97547.14
2019-04-09T09:49:29.439Z,97541.84
2019-04-09T09:52:01.105Z,97543.02
2019-04-09T09:54:35.637Z,97539.40
2019-04-09T09:57:16.147Z,97541.31
2019-04-09T09:59:47.169Z,97533.70
2019-04-09T10:02:34.622Z,97523.34
2019-04-09T10:05:21.634Z,97523.34
2019-04-09T10:08:03.243Z,97529.72
2019-04-09T10:10:31.999Z,97527.95
2019-04-09T10:13:06.764Z,97528.47
2019-04-09T10:15:50.968Z,97523.78
2019-04-09T10:18:28.530Z,97518.11
2019-04-09T10:21:04.629Z,97509.86
2019-04-09T10:23:35.241Z,97509.53
2019-04-09T10:26:20.945Z,97506.50
2019-04-09T10:29:11.939Z,97499.39
2019-04-09T10:31:50.104Z,97496.57
2019-04-09T10:34:23.516Z,97493.08
2019-04-09T10:36:53.010Z,97484.39
2019-04-09T10:39:39.426Z,97489.54
2019-04-09T10:42:16.098Z,97487.77
2019-04-09T10:44:48.767Z,97481.77
2019-04-09T10:47:32.984Z,97477.29
2019-04-09T10:50:18.799Z,97474.76
2019-04-09T10:52:56.940Z,97467.55
2019-04-09T10:55:42.098Z,97461.78
2019-04-09T10:58:25.834Z,97459.81
2019-04-09T11:00:59.248Z,97461.11
2019-04-09T11:03:33.575Z,97460.02
2019-04-09T11:06:04.168Z,97461.94
2019-04-09T11:08:41.485Z,97460.47
2019-04-09T11:11:16.472Z,97453.34
2019-04-09T11:13:53.185Z,97456.61
2019-04-09T11:16:39.150Z,97448.95
2019-04-09T11:19:09.757Z,97453.14
2019-04-09T11:21:43.302Z,97453.64
2019-04-09T11:24:26.788Z,97455.58
2019-04-09T11:27:10.170Z,97456.38
2019-04-09T11:29:51.778Z,97451.97
2019-04-09T11:32:22.840Z,97449.30
2019-04-09T11:34:53.319Z,97446.24
2019-04-09T11:37:25.314Z,97448.86
2019-04-09T11:40:12.565Z,97439.84
2019-04-09T11:43:01.523Z,97437.31
2019-04-09T11:45:39.956Z,97443.04
2019-04-09T11:48:15.993Z,97437.20
2019-04-09T11:51:03.511Z,97432.94
2019-04-09T11:53:36.509Z,97431.64
2019-04-09T11:56:12.712Z,97424.28
2019-04-09T11:58:59.029Z,97435.05
2019-04-09T12:01:59.185Z,97423.78
2019-04-09T12:04:32.605Z,97421.05
2019-04-09T12:07:19.901Z,97418.44
2019-04-09T12:10:06.554Z,97415.02
2019-04-09T12:12:36.500Z,97409.75
2019-04-09T12:15:20.334Z,97406.88
2019-04-09T12:17:53.905Z,97404.45
2019-04-09T12:20:24.263Z,97408.59
2019-04-09T12:23:06.029Z,97410.50
2019-04-09T12:25:36.067Z,97406.56
2019-04-09T12:28:06.456Z,97404.69
2019-04-09T12:33:27.170Z,97394.47
2019-04-09T12:36:00.507Z,97391.27
2019-04-09T12:38:47.405Z,97394.25
2019-04-09T12:41:33.279Z,97383.95
2019-04-09T12:44:20.345Z,97392.45
2019-04-09T12:46:56.375Z,97386.46
2019-04-09T12:49:43.292Z,97382.76
2019-04-09T12:52:29.681Z,97375.23
2019-04-09T12:55:17.521Z,97380.23
2019-04-09T12:57:48.101Z,97370.33
2019-04-09T13:00:21.443Z,97369.30
2019-04-09T13:03:06.926Z,97367.65
2019-04-09T13:05:46.516Z,97361.73
2019-04-09T13:08:28.559Z,97359.39
2019-04-09T13:11:00.230Z,97362.45
2019-04-09T13:13:45.462Z,97359.44
2019-04-09T13:16:27.402Z,97354.13
2019-04-09T13:19:00.715Z,97349.98
2019-04-09T13:21:41.222Z,97355.61
2019-04-09T13:24:11.473Z,97350.52
2019-04-09T13:26:58.417Z,97341.47
2019-04-09T13:29:34.652Z,97342.94
2019-04-09T13:32:07.702Z,97346.16
2019-04-09T13:34:40.399Z,97339.89
2019-04-09T13:37:10.660Z,97340.73
2019-04-09T13:39:49.931Z,97334.36
2019-04-09T13:42:20.482Z,97339.33
2019-04-09T13:44:59.774Z,97334.98
2019-04-09T13:47:35.601Z,97334.20
2019-04-09T13:50:25.127Z,97326.26
2019-04-09T13:52:54.139Z,97327.77
2019-04-09T13:55:22.530Z,97312.78
2019-04-09T13:57:50.887Z,97313.84
2019-04-09T14:00:20.782Z,97306.88
2019-04-09T14:03:20.592Z,97303.10
2019-04-09T14:05:32.923Z,97312.08
2019-04-09T14:08:01.808Z,97305.09
2019-04-09T14:10:34.309Z,97302.87
2019-04-09T14:13:01.350Z,97298.42
2019-04-09T14:15:30.305Z,97249.73
2019-04-09T14:17:58.607Z,97295.41
2019-04-09T14:20:27.560Z,97292.23
2019-04-09T14:22:56.040Z,97288.93
2019-04-09T14:25:25.399Z,97284.07
2019-04-09T14:27:53.952Z,97284.70
2019-04-09T14:30:22.641Z,97288.18
2019-04-09T14:33:01.060Z,97280.98
2019-04-09T14:35:21.408Z,97285.21
2019-04-09T14:37:50.972Z,97282.95
2019-04-09T14:40:19.699Z,97287.80
2019-04-09T14:42:47.976Z,97283.77
2019-04-09T14:45:16.350Z,97289.13
2019-04-09T14:47:44.994Z,97280.83
2019-04-09T14:50:13.676Z,97278.98
2019-04-09T14:52:50.784Z,97283.05
2019-04-09T14:55:12.977Z,97279.28
2019-04-09T14:57:41.645Z,97272.99
2019-04-09T15:00:12.193Z,97277.44
2019-04-09T15:02:40.846Z,97281.67
2019-04-09T15:05:09.882Z,97281.54
2019-04-09T15:07:39.565Z,97273.60
2019-04-09T15:10:09.275Z,97272.13
2019-04-09T15:12:37.988Z,97268.12
2019-04-09T15:15:08.756Z,97263.78
2019-04-09T15:17:37.431Z,97268.31
2019-04-09T15:20:07.079Z,97260.50
2019-04-09T15:22:36.646Z,97265.14
2019-04-09T15:25:07.151Z,97259.78
2019-04-09T15:27:35.809Z,97263.91
2019-04-09T15:30:06.296Z,97266.06
2019-04-09T15:32:35.312Z,97265.66
2019-04-09T15:35:05.705Z,97264.31
2019-04-09T15:37:34.084Z,97268.30
2019-04-09T15:40:03.282Z,97266.02
2019-04-09T15:42:32.152Z,97264.45
2019-04-09T15:45:00.548Z,97267.83
2019-04-09T15:47:29.564Z,97264.28
2019-04-09T15:49:58.906Z,97260.67
2019-04-09T15:52:28.722Z,97258.30
2019-04-09T15:54:57.409Z,97267.29
2019-04-09T15:57:25.877Z,97263.73
2019-04-09T15:59:55.224Z,97267.91
2019-04-09T16:02:24.649Z,97262.45
2019-04-09T16:04:54.523Z,97267.64
2019-04-09T16:07:24.014Z,97267.08
2019-04-09T16:09:52.701Z,97267.02
2019-04-09T16:12:21.129Z,97256.92
2019-04-09T16:14:50.071Z,97260.57
2019-04-09T16:17:19.353Z,97264.44
2019-04-09T16:19:50.537Z,97261.44
2019-04-09T16:22:18.334Z,97258.30
2019-04-09T16:24:46.841Z,97261.70
2019-04-09T16:27:15.487Z,97255.03
2019-04-09T16:29:44.276Z,97263.84
2019-04-09T16:32:12.923Z,97263.13
2019-04-09T16:34:42.143Z,97264.07
2019-04-09T16:37:14.082Z,97265.67
2019-04-09T16:39:40.664Z,97263.41
2019-04-09T16:42:09.364Z,97266.17
2019-04-09T16:44:51.769Z,97269.19
2019-04-09T16:47:07.812Z,97268.83
2019-04-09T16:49:37.098Z,97276.38
2019-04-09T16:52:05.673Z,97272.33
2019-04-09T16:54:34.770Z,97282.08
2019-04-09T16:57:03.827Z,97281.00
2019-04-09T16:59:32.943Z,97279.70
2019-04-09T17:02:02.424Z,97279.67
2019-04-09T17:04:31.784Z,97282.70
2019-04-09T17:07:01.566Z,97283.31
2019-04-09T17:09:35.984Z,97278.20
2019-04-09T17:12:00.959Z,97277.44
2019-04-09T17:14:29.984Z,97284.91
2019-04-09T17:16:58.353Z,97283.59
2019-04-09T17:19:27.748Z,97283.66
2019-04-09T17:21:56.317Z,97287.95
2019-04-09T17:24:24.617Z,97279.41
2019-04-09T17:26:54.068Z,97286.23
2019-04-09T17:29:22.630Z,97284.09
2019-04-09T17:31:50.980Z,97285.48
2019-04-09T17:34:27.714Z,97283.18
2019-04-09T17:36:49.291Z,97292.30
2019-04-09T17:39:17.627Z,97292.81
2019-04-09T17:41:59.590Z,97285.31
2019-04-09T17:44:17.320Z,97294.78
2019-04-09T17:46:45.905Z,97297.59
2019-04-09T17:49:15.283Z,97297.44
2019-04-09T17:51:43.781Z,97298.42
2019-04-09T17:54:13.181Z,97300.57
2019-04-09T17:56:41.608Z,97297.41
2019-04-09T17:59:10.999Z,97303.20
2019-04-09T18:01:39.829Z,97306.52
2019-04-09T18:04:09.549Z,97305.67
2019-04-09T18:06:38.773Z,97308.98
2019-04-09T18:09:08.087Z,97308.97
2019-04-09T18:11:37.424Z,97309.95
2019-04-09T18:14:05.876Z,97315.47
2019-04-09T18:16:34.326Z,97312.60
2019-04-09T18:19:02.670Z,97319.78
2019-04-09T18:21:30.963Z,97322.58
2019-04-09T18:24:00.498Z,97323.77
2019-04-09T18:26:29.056Z,97326.81
2019-04-09T18:28:58.545Z,97331.06
2019-04-09T18:31:33.623Z,97327.50
2019-04-09T18:33:57.092Z,97334.11
2019-04-09T18:36:26.329Z,97333.89
2019-04-09T18:38:55.357Z,97330.77
2019-04-09T18:41:23.667Z,97333.58
2019-04-09T18:43:51.982Z,97335.46
2019-04-09T18:46:20.431Z,97345.34
2019-04-09T18:48:50.762Z,97341.80
2019-04-09T18:51:18.810Z,97339.70
2019-04-09T18:53:47.277Z,97344.12
2019-04-09T18:56:15.557Z,97346.60
2019-04-09T18:58:43.864Z,97351.73
2019-04-09T19:01:13.039Z,97343.56
2019-04-09T19:03:42.251Z,97346.50
2019-04-09T19:06:10.820Z,97350.27
2019-04-09T19:08:39.411Z,97348.82
2019-04-09T19:11:08.110Z,97350.81
2019-04-09T19:13:37.379Z,97355.10
2019-04-09T19:16:06.169Z,97355.53
2019-04-09T19:18:35.930Z,97348.80
2019-04-09T19:21:04.713Z,97359.94
2019-04-09T19:23:33.952Z,97359.80
2019-04-09T19:26:02.710Z,97356.17
2019-04-09T19:28:31.038Z,97361.26
2019-04-09T19:30:59.391Z,97362.77
2019-04-09T19:33:27.787Z,97355.14
2019-04-09T19:35:56.096Z,97358.52
2019-04-09T19:38:26.721Z,97352.66
2019-04-09T19:40:54.520Z,97363.89
2019-04-09T19:43:22.821Z,97360.58
2019-04-09T19:45:51.915Z,97352.02
2019-04-09T19:48:20.621Z,97357.77
2019-04-09T19:50:50.111Z,97354.66
2019-04-09T19:53:18.618Z,97358.72
2019-04-09T19:55:46.952Z,97359.94
2019-04-09T19:58:15.293Z,97358.77
2019-04-09T20:00:43.683Z,97350.89
2019-04-09T20:03:12.205Z,97352.78
2019-04-09T20:05:42.670Z,97346.72
2019-04-09T20:08:11.202Z,97346.05
2019-04-09T20:10:42.614Z,97350.41
2019-04-09T20:13:12.308Z,97343.73
2019-04-09T20:15:42.243Z,97343.41
2019-04-09T20:18:10.683Z,97340.23
2019-04-09T20:20:39.318Z,97340.32
2019-04-09T20:23:07.781Z,97342.27
2019-04-09T20:25:36.086Z,97342.88
2019-04-09T20:28:05.535Z,97342.65
2019-04-09T20:30:34.548Z,97339.38
2019-04-09T20:33:03.200Z,97336.41
2019-04-09T20:35:40.425Z,97340.02
2019-04-09T20:38:02.655Z,97340.41
2019-04-09T20:40:32.121Z,97340.09
2019-04-09T20:43:01.390Z,97346.02
2019-04-09T20:45:30.947Z,97349.97
2019-04-09T20:47:59.563Z,97347.61
2019-04-09T20:50:27.976Z,97348.61
2019-04-09T20:52:58.630Z,97343.73
2019-04-09T20:55:27.545Z,97344.45
2019-04-09T20:57:56.482Z,97347.72
2019-04-09T21:00:37.318Z,97350.27
2019-04-09T21:03:15.225Z,97352.79
2019-04-09T21:05:52.991Z,97351.53
2019-04-09T21:08:15.344Z,97349.01
2019-04-09T21:10:44.294Z,97355.94
2019-04-09T21:13:13.303Z,97355.16
2019-04-09T21:15:42.842Z,97358.48
2019-04-09T21:18:11.194Z,97363.34
2019-04-09T21:20:39.502Z,97364.66
2019-04-09T21:23:08.047Z,97366.22
2019-04-09T21:25:37.444Z,97367.95
2019-04-09T21:28:05.935Z,97377.66
2019-04-09T21:30:34.236Z,97377.66
2019-04-09T21:33:02.675Z,97384.45
2019-04-09T21:35:31.388Z,97383.98
2019-04-09T21:38:00.339Z,97386.04
2019-04-09T21:40:29.263Z,97388.97
2019-04-09T21:42:58.870Z,97390.92
2019-04-09T21:45:28.329Z,97399.88
2019-04-09T21:47:57.301Z,97396.92
2019-04-09T21:50:26.679Z,97403.45
2019-04-09T21:52:55.423Z,97404.34
2019-04-09T21:55:24.520Z,97407.15
2019-04-09T21:57:53.906Z,97404.66
2019-04-09T22:00:38.449Z,97414.28
2019-04-09T22:03:07.182Z,97410.63
2019-04-09T22:05:36.534Z,97415.00
2019-04-09T22:08:05.689Z,97418.41
2019-04-09T22:10:34.243Z,97417.39
2019-04-09T22:13:02.848Z,97414.67
2019-04-09T22:15:31.371Z,97418.35
2019-04-09T22:18:11.582Z,97421.37
2019-04-09T22:20:30.424Z,97417.09
2019-04-09T22:22:58.729Z,97420.81
2019-04-09T22:25:27.279Z,97425.66
2019-04-09T22:27:56.803Z,97426.48
2019-04-09T22:30:26.121Z,97422.98
2019-04-09T22:33:04.202Z,97427.97
2019-04-09T22:35:24.899Z,97426.19
2019-04-09T22:37:54.008Z,97429.88
2019-04-09T22:40:23.189Z,97431.34
2019-04-09T22:42:52.104Z,97432.24
2019-04-09T22:45:21.015Z,97427.75
2019-04-09T22:47:49.510Z,97429.61
2019-04-09T22:50:17.884Z,97426.04
2019-04-09T22:52:46.210Z,97424.25
2019-04-09T22:55:14.615Z,97430.14
2019-04-09T22:57:44.288Z,97429.93
2019-04-09T23:00:14.944Z,97433.63
2019-04-09T23:02:44.892Z,97431.84
2019-04-09T23:05:31.358Z,97430.88
2019-04-09T23:08:05.019Z,97432.67
2019-04-09T23:10:35.330Z,97431.41
2019-04-09T23:13:05.946Z,97429.13
2019-04-09T23:15:37.254Z,97426.55
2019-04-09T23:18:05.755Z,97426.30
2019-04-09T23:20:34.781Z,97432.15
2019-04-09T23:23:03.356Z,97432.91
2019-04-09T23:25:32.876Z,97435.14
2019-04-09T23:28:03.221Z,97436.25
2019-04-09T23:30:32.215Z,97436.91
2019-04-09T23:33:00.714Z,97441.98
2019-04-09T23:35:29.087Z,97439.20
2019-04-09T23:37:57.423Z,97436.76
2019-04-09T23:40:26.880Z,97435.92
2019-04-09T23:42:55.413Z,97437.16
2019-04-09T23:45:24.285Z,97440.20
2019-04-09T23:47:53.383Z,97435.26
2019-04-09T23:50:22.126Z,97438.33
2019-04-09T23:52:50.624Z,97441.34
2019-04-09T23:55:19.152Z,97443.34
2019-04-09T23:57:47.575Z,97445.83
